createdAt,value
2022-11-20T00:21:58.399Z,1015.06
2022-11-20T00:50:59.841Z,1015.06
2022-11-20T01:20:03.694Z,1015.08
2022-11-20T01:49:06.420Z,1014.96
2022-11-20T02:18:09.574Z,1014.91
2022-11-20T02:47:13.661Z,1014.85
2022-11-20T03:16:14.521Z,1015.05
2022-11-20T03:45:13.592Z,1015.05
2022-11-20T04:14:16.207Z,1014.92
2022-11-20T04:43:11.915Z,1014.87
2022-11-20T05:12:14.684Z,1014.9
2022-11-20T05:41:18.307Z,1014.78
2022-11-20T06:10:29.556Z,1014.94
2022-11-20T06:39:34.423Z,1014.87
2022-11-20T07:08:37.965Z,1014.97
2022-11-20T07:37:34.807Z,1015.17
2022-11-20T08:06:37.835Z,1015.49
2022-11-20T08:35:38.283Z,1015.73
2022-11-20T09:04:46.613Z,1016
2022-11-20T09:33:49.601Z,1016.3
2022-11-20T10:02:55.963Z,1016.26
2022-11-20T10:32:01.296Z,1016.28
2022-11-20T11:00:55.786Z,1015.76
2022-11-20T11:30:00.120Z,1015.2
2022-11-20T11:59:00.179Z,1014.81
2022-11-20T12:27:53.769Z,1014.82
2022-11-20T12:57:04.618Z,1014.65
2022-11-20T13:25:36.419Z,1014.25
2022-11-20T13:54:29.651Z,1014.01
2022-11-20T14:23:31.002Z,1013.58
2022-11-20T14:51:48.719Z,1013.08
2022-11-20T15:20:36.159Z,1013.03
2022-11-20T15:49:35.091Z,1012.92
2022-11-20T16:18:38.877Z,1012.91
2022-11-20T16:47:39.159Z,1012.59
2022-11-20T17:16:37.645Z,1012.37
2022-11-20T17:45:37.139Z,1012.49
2022-11-20T18:14:30.822Z,1012.68
2022-11-20T18:43:27.516Z,1012.42
2022-11-20T19:11:58.248Z,1012.21
2022-11-20T19:40:48.071Z,1012.52
2022-11-20T20:09:38.886Z,1012.64
2022-11-20T20:38:32.731Z,1012.7
2022-11-20T21:07:21.319Z,1012.84
2022-11-20T21:36:14.620Z,1013.01
2022-11-20T22:05:17.830Z,1013.31
2022-11-20T22:34:23.813Z,1013.06
2022-11-20T23:02:58.982Z,1013.26
2022-11-20T23:32:03.407Z,1012.94
